sensor_id;sensor_type;location;lat;lon;timestamp;temperature;humidity
76305;DHT22;65111;50.536;19.204;2023-04-24T00:01:52;11.20;69.50
76305;DHT22;65111;50.536;19.204;2023-04-24T00:04:18;11.10;69.70
76305;DHT22;65111;50.536;19.204;2023-04-24T00:06:44;11.10;70.40
76305;DHT22;65111;50.536;19.204;2023-04-24T00:09:15;11.00;70.30
76305;DHT22;65111;50.536;19.204;2023-04-24T00:11:41;10.90;70.30
76305;DHT22;65111;50.536;19.204;2023-04-24T00:14:07;10.80;70.30
76305;DHT22;65111;50.536;19.204;2023-04-24T00:16:33;10.80;70.80
76305;DHT22;65111;50.536;19.204;2023-04-24T00:18:59;10.70;71.30
76305;DHT22;65111;50.536;19.204;2023-04-24T00:21:26;10.70;71.30
76305;DHT22;65111;50.536;19.204;2023-04-24T00:23:53;10.70;70.90
76305;DHT22;65111;50.536;19.204;2023-04-24T00:26:19;10.80;70.70
76305;DHT22;65111;50.536;19.204;2023-04-24T00:28:45;10.80;70.40
76305;DHT22;65111;50.536;19.204;2023-04-24T00:31:11;10.80;70.30
76305;DHT22;65111;50.536;19.204;2023-04-24T00:33:37;10.80;70.50
76305;DHT22;65111;50.536;19.204;2023-04-24T00:36:03;10.80;70.50
76305;DHT22;65111;50.536;19.204;2023-04-24T00:38:29;10.80;70.10
76305;DHT22;65111;50.536;19.204;2023-04-24T00:40:55;10.90;70.30
76305;DHT22;65111;50.536;19.204;2023-04-24T00:43:22;10.80;70.50
76305;DHT22;65111;50.536;19.204;2023-04-24T00:45:48;10.80;70.50
76305;DHT22;65111;50.536;19.204;2023-04-24T00:48:14;10.80;70.20
76305;DHT22;65111;50.536;19.204;2023-04-24T00:50:41;10.80;70.30
76305;DHT22;65111;50.536;19.204;2023-04-24T00:53:08;10.70;70.20
76305;DHT22;65111;50.536;19.204;2023-04-24T00:55:34;10.70;70.10
76305;DHT22;65111;50.536;19.204;2023-04-24T00:58:02;10.70;70.20
76305;DHT22;65111;50.536;19.204;2023-04-24T01:00:29;10.60;69.80
76305;DHT22;65111;50.536;19.204;2023-04-24T01:02:55;10.60;69.90
76305;DHT22;65111;50.536;19.204;2023-04-24T01:05:23;10.60;69.60
76305;DHT22;65111;50.536;19.204;2023-04-24T01:07:49;10.50;69.30
76305;DHT22;65111;50.536;19.204;2023-04-24T01:10:16;10.50;69.20
76305;DHT22;65111;50.536;19.204;2023-04-24T01:12:43;10.50;68.90
76305;DHT22;65111;50.536;19.204;2023-04-24T01:15:10;10.50;69.00
76305;DHT22;65111;50.536;19.204;2023-04-24T01:17:36;10.40;68.80
76305;DHT22;65111;50.536;19.204;2023-04-24T01:20:02;10.30;68.70
76305;DHT22;65111;50.536;19.204;2023-04-24T01:22:33;10.30;68.70
76305;DHT22;65111;50.536;19.204;2023-04-24T01:25:00;10.30;68.80
76305;DHT22;65111;50.536;19.204;2023-04-24T01:27:26;10.30;69.10
76305;DHT22;65111;50.536;19.204;2023-04-24T01:29:53;10.30;69.50
76305;DHT22;65111;50.536;19.204;2023-04-24T01:32:19;10.30;69.40
76305;DHT22;65111;50.536;19.204;2023-04-24T01:34:46;10.40;69.60
76305;DHT22;65111;50.536;19.204;2023-04-24T01:37:13;10.30;69.80
76305;DHT22;65111;50.536;19.204;2023-04-24T01:39:39;10.40;69.70
76305;DHT22;65111;50.536;19.204;2023-04-24T01:42:05;10.30;69.50
76305;DHT22;65111;50.536;19.204;2023-04-24T01:44:31;10.40;69.30
76305;DHT22;65111;50.536;19.204;2023-04-24T01:47:00;10.40;69.00
76305;DHT22;65111;50.536;19.204;2023-04-24T01:49:26;10.30;69.10
76305;DHT22;65111;50.536;19.204;2023-04-24T01:51:53;10.30;69.00
76305;DHT22;65111;50.536;19.204;2023-04-24T01:54:19;10.20;69.20
76305;DHT22;65111;50.536;19.204;2023-04-24T01:56:46;10.10;69.60
76305;DHT22;65111;50.536;19.204;2023-04-24T01:59:12;10.20;69.50
76305;DHT22;65111;50.536;19.204;2023-04-24T02:01:39;10.10;69.60
76305;DHT22;65111;50.536;19.204;2023-04-24T02:04:06;10.00;69.50
76305;DHT22;65111;50.536;19.204;2023-04-24T02:06:32;9.90;69.60
76305;DHT22;65111;50.536;19.204;2023-04-24T02:08:59;9.80;70.00
76305;DHT22;65111;50.536;19.204;2023-04-24T02:11:26;9.80;70.00
76305;DHT22;65111;50.536;19.204;2023-04-24T02:13:53;9.70;70.50
76305;DHT22;65111;50.536;19.204;2023-04-24T02:16:19;9.70;70.50
76305;DHT22;65111;50.536;19.204;2023-04-24T02:18:45;9.60;70.60
76305;DHT22;65111;50.536;19.204;2023-04-24T02:21:11;9.60;70.50
76305;DHT22;65111;50.536;19.204;2023-04-24T02:23:37;9.60;70.80
76305;DHT22;65111;50.536;19.204;2023-04-24T02:26:04;9.40;70.80
76305;DHT22;65111;50.536;19.204;2023-04-24T02:28:30;9.30;71.00
76305;DHT22;65111;50.536;19.204;2023-04-24T02:30:56;9.30;71.00
76305;DHT22;65111;50.536;19.204;2023-04-24T02:33:22;9.20;70.70
76305;DHT22;65111;50.536;19.204;2023-04-24T02:35:48;9.20;71.10
76305;DHT22;65111;50.536;19.204;2023-04-24T02:38:14;9.20;71.40
76305;DHT22;65111;50.536;19.204;2023-04-24T02:40:40;9.00;71.30
76305;DHT22;65111;50.536;19.204;2023-04-24T02:43:06;9.10;71.40
76305;DHT22;65111;50.536;19.204;2023-04-24T02:45:32;9.00;71.20
76305;DHT22;65111;50.536;19.204;2023-04-24T02:48:00;9.00;71.30
76305;DHT22;65111;50.536;19.204;2023-04-24T02:50:26;9.00;71.20
76305;DHT22;65111;50.536;19.204;2023-04-24T02:52:52;9.00;71.20
76305;DHT22;65111;50.536;19.204;2023-04-24T02:55:18;8.90;71.40
76305;DHT22;65111;50.536;19.204;2023-04-24T02:57:45;8.90;71.40
76305;DHT22;65111;50.536;19.204;2023-04-24T03:00:11;8.90;71.30
76305;DHT22;65111;50.536;19.204;2023-04-24T03:02:39;8.80;71.30
76305;DHT22;65111;50.536;19.204;2023-04-24T03:05:05;8.80;71.60
76305;DHT22;65111;50.536;19.204;2023-04-24T03:07:31;8.80;71.70
76305;DHT22;65111;50.536;19.204;2023-04-24T03:09:58;8.70;71.60
76305;DHT22;65111;50.536;19.204;2023-04-24T03:12:25;8.80;71.80
76305;DHT22;65111;50.536;19.204;2023-04-24T03:14:51;8.80;71.70
76305;DHT22;65111;50.536;19.204;2023-04-24T03:17:17;8.80;71.30
76305;DHT22;65111;50.536;19.204;2023-04-24T03:19:43;8.70;71.20
76305;DHT22;65111;50.536;19.204;2023-04-24T03:22:09;8.70;71.30
76305;DHT22;65111;50.536;19.204;2023-04-24T03:24:35;8.70;71.50
76305;DHT22;65111;50.536;19.204;2023-04-24T03:27:01;8.70;71.50
76305;DHT22;65111;50.536;19.204;2023-04-24T03:29:27;8.50;71.40
76305;DHT22;65111;50.536;19.204;2023-04-24T03:31:54;8.60;71.40
76305;DHT22;65111;50.536;19.204;2023-04-24T03:34:20;8.60;71.80
76305;DHT22;65111;50.536;19.204;2023-04-24T03:36:46;8.60;71.50
76305;DHT22;65111;50.536;19.204;2023-04-24T03:39:15;8.70;71.60
76305;DHT22;65111;50.536;19.204;2023-04-24T03:41:41;8.80;71.30
76305;DHT22;65111;50.536;19.204;2023-04-24T03:44:07;8.80;71.10
76305;DHT22;65111;50.536;19.204;2023-04-24T03:46:33;9.00;70.90
76305;DHT22;65111;50.536;19.204;2023-04-24T03:49:00;9.10;70.60
76305;DHT22;65111;50.536;19.204;2023-04-24T03:51:25;9.30;70.20
76305;DHT22;65111;50.536;19.204;2023-04-24T03:53:53;9.60;70.10
76305;DHT22;65111;50.536;19.204;2023-04-24T03:56:19;9.90;69.30
76305;DHT22;65111;50.536;19.204;2023-04-24T03:58:46;10.10;68.50
76305;DHT22;65111;50.536;19.204;2023-04-24T04:01:12;10.40;67.70
76305;DHT22;65111;50.536;19.204;2023-04-24T04:03:39;10.60;67.30
76305;DHT22;65111;50.536;19.204;2023-04-24T04:06:05;11.00;66.60
76305;DHT22;65111;50.536;19.204;2023-04-24T04:08:31;11.50;66.20
76305;DHT22;65111;50.536;19.204;2023-04-24T04:10:57;11.90;65.20
76305;DHT22;65111;50.536;19.204;2023-04-24T04:13:23;12.30;64.50
76305;DHT22;65111;50.536;19.204;2023-04-24T04:15:50;12.80;63.00
76305;DHT22;65111;50.536;19.204;2023-04-24T04:18:16;13.20;62.80
76305;DHT22;65111;50.536;19.204;2023-04-24T04:20:42;13.60;62.10
76305;DHT22;65111;50.536;19.204;2023-04-24T04:23:08;14.00;61.60
76305;DHT22;65111;50.536;19.204;2023-04-24T04:25:34;14.50;60.50
76305;DHT22;65111;50.536;19.204;2023-04-24T04:28:00;15.00;59.50
76305;DHT22;65111;50.536;19.204;2023-04-24T04:30:27;15.60;57.40
76305;DHT22;65111;50.536;19.204;2023-04-24T04:32:55;16.00;55.80
76305;DHT22;65111;50.536;19.204;2023-04-24T04:35:21;16.30;54.70
76305;DHT22;65111;50.536;19.204;2023-04-24T04:37:47;16.60;54.20
76305;DHT22;65111;50.536;19.204;2023-04-24T04:40:13;17.00;53.60
76305;DHT22;65111;50.536;19.204;2023-04-24T04:42:40;17.50;53.30
76305;DHT22;65111;50.536;19.204;2023-04-24T04:45:09;17.80;51.50
76305;DHT22;65111;50.536;19.204;2023-04-24T04:47:37;18.50;49.60
76305;DHT22;65111;50.536;19.204;2023-04-24T04:50:04;18.90;49.40
76305;DHT22;65111;50.536;19.204;2023-04-24T04:52:31;19.20;48.70
76305;DHT22;65111;50.536;19.204;2023-04-24T04:54:57;19.50;47.30
76305;DHT22;65111;50.536;19.204;2023-04-24T04:57:23;19.80;46.70
76305;DHT22;65111;50.536;19.204;2023-04-24T04:59:49;20.10;45.30
76305;DHT22;65111;50.536;19.204;2023-04-24T05:02:15;20.50;45.00
76305;DHT22;65111;50.536;19.204;2023-04-24T05:04:41;20.90;43.70
76305;DHT22;65111;50.536;19.204;2023-04-24T05:07:07;21.50;42.30
76305;DHT22;65111;50.536;19.204;2023-04-24T05:09:33;22.20;41.00
76305;DHT22;65111;50.536;19.204;2023-04-24T05:11:59;22.70;40.30
76305;DHT22;65111;50.536;19.204;2023-04-24T05:14:26;23.30;39.20
76305;DHT22;65111;50.536;19.204;2023-04-24T05:16:52;23.70;37.90
76305;DHT22;65111;50.536;19.204;2023-04-24T05:19:18;24.20;37.70
76305;DHT22;65111;50.536;19.204;2023-04-24T05:21:45;24.60;37.00
76305;DHT22;65111;50.536;19.204;2023-04-24T05:24:11;24.90;36.40
76305;DHT22;65111;50.536;19.204;2023-04-24T05:26:37;25.30;36.60
76305;DHT22;65111;50.536;19.204;2023-04-24T05:29:03;25.70;36.60
76305;DHT22;65111;50.536;19.204;2023-04-24T05:31:29;26.40;36.50
76305;DHT22;65111;50.536;19.204;2023-04-24T05:33:56;27.00;36.10
76305;DHT22;65111;50.536;19.204;2023-04-24T05:36:22;27.80;35.40
76305;DHT22;65111;50.536;19.204;2023-04-24T05:38:48;28.50;34.70
76305;DHT22;65111;50.536;19.204;2023-04-24T05:41:14;29.30;32.90
76305;DHT22;65111;50.536;19.204;2023-04-24T05:43:40;29.80;32.20
76305;DHT22;65111;50.536;19.204;2023-04-24T05:46:06;30.10;32.20
76305;DHT22;65111;50.536;19.204;2023-04-24T05:48:33;30.60;31.30
76305;DHT22;65111;50.536;19.204;2023-04-24T05:50:59;31.10;31.00
76305;DHT22;65111;50.536;19.204;2023-04-24T05:53:25;31.50;30.10
76305;DHT22;65111;50.536;19.204;2023-04-24T05:55:51;31.80;30.30
76305;DHT22;65111;50.536;19.204;2023-04-24T05:58:17;32.40;30.20
76305;DHT22;65111;50.536;19.204;2023-04-24T06:00:43;32.90;29.90
76305;DHT22;65111;50.536;19.204;2023-04-24T06:03:12;33.40;29.40
76305;DHT22;65111;50.536;19.204;2023-04-24T06:05:38;33.60;29.00
76305;DHT22;65111;50.536;19.204;2023-04-24T06:08:04;33.80;29.10
76305;DHT22;65111;50.536;19.204;2023-04-24T06:10:30;34.10;28.90
76305;DHT22;65111;50.536;19.204;2023-04-24T06:12:56;34.50;28.00
76305;DHT22;65111;50.536;19.204;2023-04-24T06:15:30;34.90;27.70
76305;DHT22;65111;50.536;19.204;2023-04-24T06:18:00;34.90;27.30
76305;DHT22;65111;50.536;19.204;2023-04-24T06:20:26;34.80;27.70
76305;DHT22;65111;50.536;19.204;2023-04-24T06:22:52;34.80;27.10
76305;DHT22;65111;50.536;19.204;2023-04-24T06:25:18;34.40;26.90
76305;DHT22;65111;50.536;19.204;2023-04-24T06:27:45;33.90;27.30
76305;DHT22;65111;50.536;19.204;2023-04-24T06:30:11;33.70;27.10
76305;DHT22;65111;50.536;19.204;2023-04-24T06:32:37;33.40;27.20
76305;DHT22;65111;50.536;19.204;2023-04-24T06:35:03;33.20;27.50
76305;DHT22;65111;50.536;19.204;2023-04-24T06:37:30;33.20;27.10
76305;DHT22;65111;50.536;19.204;2023-04-24T06:39:56;33.50;27.40
76305;DHT22;65111;50.536;19.204;2023-04-24T06:42:22;33.80;27.20
76305;DHT22;65111;50.536;19.204;2023-04-24T06:44:50;34.30;27.10
76305;DHT22;65111;50.536;19.204;2023-04-24T06:47:16;34.90;26.80
76305;DHT22;65111;50.536;19.204;2023-04-24T06:49:42;35.40;26.60
76305;DHT22;65111;50.536;19.204;2023-04-24T06:52:09;36.00;25.80
76305;DHT22;65111;50.536;19.204;2023-04-24T06:54:35;36.30;25.70
76305;DHT22;65111;50.536;19.204;2023-04-24T06:57:01;36.40;25.80
76305;DHT22;65111;50.536;19.204;2023-04-24T06:59:28;37.10;25.70
76305;DHT22;65111;50.536;19.204;2023-04-24T07:01:55;38.00;25.80
76305;DHT22;65111;50.536;19.204;2023-04-24T07:04:21;39.10;25.20
76305;DHT22;65111;50.536;19.204;2023-04-24T07:06:48;39.80;24.10
76305;DHT22;65111;50.536;19.204;2023-04-24T07:09:18;40.20;23.80
76305;DHT22;65111;50.536;19.204;2023-04-24T07:11:45;40.30;23.80
76305;DHT22;65111;50.536;19.204;2023-04-24T07:14:11;40.80;23.50
76305;DHT22;65111;50.536;19.204;2023-04-24T07:16:38;41.00;23.50
76305;DHT22;65111;50.536;19.204;2023-04-24T07:19:04;41.40;23.20
76305;DHT22;65111;50.536;19.204;2023-04-24T07:21:31;41.50;23.30
76305;DHT22;65111;50.536;19.204;2023-04-24T07:23:58;41.80;23.00
76305;DHT22;65111;50.536;19.204;2023-04-24T07:26:25;42.40;22.30
76305;DHT22;65111;50.536;19.204;2023-04-24T07:28:51;42.50;22.20
76305;DHT22;65111;50.536;19.204;2023-04-24T07:31:17;42.70;22.30
76305;DHT22;65111;50.536;19.204;2023-04-24T07:33:43;42.80;22.10
76305;DHT22;65111;50.536;19.204;2023-04-24T07:36:10;43.30;22.20
76305;DHT22;65111;50.536;19.204;2023-04-24T07:38:44;43.80;22.10
76305;DHT22;65111;50.536;19.204;2023-04-24T07:41:10;44.50;21.80
76305;DHT22;65111;50.536;19.204;2023-04-24T07:43:37;45.40;21.40
76305;DHT22;65111;50.536;19.204;2023-04-24T07:46:03;46.10;21.20
76305;DHT22;65111;50.536;19.204;2023-04-24T07:48:29;46.80;21.00
76305;DHT22;65111;50.536;19.204;2023-04-24T07:50:55;47.70;21.00
76305;DHT22;65111;50.536;19.204;2023-04-24T07:53:21;48.50;20.70
76305;DHT22;65111;50.536;19.204;2023-04-24T07:55:47;49.50;20.40
76305;DHT22;65111;50.536;19.204;2023-04-24T07:58:13;50.20;20.00
76305;DHT22;65111;50.536;19.204;2023-04-24T08:00:39;50.80;19.90
76305;DHT22;65111;50.536;19.204;2023-04-24T08:03:05;51.20;19.80
76305;DHT22;65111;50.536;19.204;2023-04-24T08:05:31;51.40;19.80
76305;DHT22;65111;50.536;19.204;2023-04-24T08:07:58;51.70;19.30
76305;DHT22;65111;50.536;19.204;2023-04-24T08:10:24;51.50;19.20
76305;DHT22;65111;50.536;19.204;2023-04-24T08:12:51;51.20;19.10
76305;DHT22;65111;50.536;19.204;2023-04-24T08:15:17;50.80;19.30
76305;DHT22;65111;50.536;19.204;2023-04-24T08:17:44;50.40;19.30
76305;DHT22;65111;50.536;19.204;2023-04-24T08:20:10;50.40;19.50
76305;DHT22;65111;50.536;19.204;2023-04-24T08:22:40;50.90;19.10
76305;DHT22;65111;50.536;19.204;2023-04-24T08:25:08;51.60;19.00
76305;DHT22;65111;50.536;19.204;2023-04-24T08:27:34;52.20;18.60
76305;DHT22;65111;50.536;19.204;2023-04-24T08:30:00;52.20;18.50
76305;DHT22;65111;50.536;19.204;2023-04-24T08:32:26;51.70;18.60
76305;DHT22;65111;50.536;19.204;2023-04-24T08:34:58;51.60;18.30
76305;DHT22;65111;50.536;19.204;2023-04-24T08:37:26;51.30;18.40
76305;DHT22;65111;50.536;19.204;2023-04-24T08:39:52;50.90;18.30
76305;DHT22;65111;50.536;19.204;2023-04-24T08:42:20;50.90;18.60
76305;DHT22;65111;50.536;19.204;2023-04-24T08:44:48;51.60;18.90
76305;DHT22;65111;50.536;19.204;2023-04-24T08:47:15;53.00;18.60
76305;DHT22;65111;50.536;19.204;2023-04-24T08:49:42;54.30;18.40
76305;DHT22;65111;50.536;19.204;2023-04-24T08:52:08;55.30;17.70
76305;DHT22;65111;50.536;19.204;2023-04-24T08:54:35;55.90;17.80
76305;DHT22;65111;50.536;19.204;2023-04-24T08:57:02;56.10;17.40
76305;DHT22;65111;50.536;19.204;2023-04-24T08:59:30;56.60;17.40
76305;DHT22;65111;50.536;19.204;2023-04-24T09:01:57;57.10;17.40
76305;DHT22;65111;50.536;19.204;2023-04-24T09:04:24;57.70;17.30
76305;DHT22;65111;50.536;19.204;2023-04-24T09:06:53;58.50;17.30
76305;DHT22;65111;50.536;19.204;2023-04-24T09:09:21;59.00;17.10
76305;DHT22;65111;50.536;19.204;2023-04-24T09:11:49;59.40;17.10
76305;DHT22;65111;50.536;19.204;2023-04-24T09:14:16;59.90;17.00
76305;DHT22;65111;50.536;19.204;2023-04-24T09:16:43;60.20;16.70
76305;DHT22;65111;50.536;19.204;2023-04-24T09:19:09;59.90;16.40
76305;DHT22;65111;50.536;19.204;2023-04-24T09:21:35;59.40;16.60
76305;DHT22;65111;50.536;19.204;2023-04-24T09:24:07;59.30;16.60
76305;DHT22;65111;50.536;19.204;2023-04-24T09:26:36;59.60;16.60
76305;DHT22;65111;50.536;19.204;2023-04-24T09:29:03;60.20;16.30
76305;DHT22;65111;50.536;19.204;2023-04-24T09:31:29;60.60;16.20
76305;DHT22;65111;50.536;19.204;2023-04-24T09:33:58;60.90;16.20
76305;DHT22;65111;50.536;19.204;2023-04-24T09:36:50;61.30;16.10
76305;DHT22;65111;50.536;19.204;2023-04-24T09:39:17;62.20;16.30
76305;DHT22;65111;50.536;19.204;2023-04-24T09:41:53;62.80;16.00
76305;DHT22;65111;50.536;19.204;2023-04-24T09:44:21;62.90;16.00
76305;DHT22;65111;50.536;19.204;2023-04-24T09:46:52;62.70;15.80
76305;DHT22;65111;50.536;19.204;2023-04-24T09:49:24;62.50;15.90
76305;DHT22;65111;50.536;19.204;2023-04-24T09:51:50;62.00;15.90
76305;DHT22;65111;50.536;19.204;2023-04-24T09:54:19;61.60;15.90
76305;DHT22;65111;50.536;19.204;2023-04-24T09:56:50;61.20;15.90
76305;DHT22;65111;50.536;19.204;2023-04-24T09:59:18;61.20;15.60
76305;DHT22;65111;50.536;19.204;2023-04-24T10:01:45;61.10;15.50
76305;DHT22;65111;50.536;19.204;2023-04-24T10:04:19;60.70;15.30
76305;DHT22;65111;50.536;19.204;2023-04-24T10:06:47;60.10;15.50
76305;DHT22;65111;50.536;19.204;2023-04-24T10:09:15;59.60;15.40
76305;DHT22;65111;50.536;19.204;2023-04-24T10:11:43;59.40;15.30
76305;DHT22;65111;50.536;19.204;2023-04-24T10:14:23;59.10;15.40
76305;DHT22;65111;50.536;19.204;2023-04-24T10:16:50;59.00;15.40
76305;DHT22;65111;50.536;19.204;2023-04-24T10:19:18;58.70;15.30
76305;DHT22;65111;50.536;19.204;2023-04-24T10:21:44;57.60;15.20
76305;DHT22;65111;50.536;19.204;2023-04-24T10:24:15;55.60;15.30
76305;DHT22;65111;50.536;19.204;2023-04-24T10:26:42;53.60;15.60
76305;DHT22;65111;50.536;19.204;2023-04-24T10:29:10;52.30;15.80
76305;DHT22;65111;50.536;19.204;2023-04-24T10:31:38;51.30;16.30
76305;DHT22;65111;50.536;19.204;2023-04-24T10:34:05;50.10;16.30
76305;DHT22;65111;50.536;19.204;2023-04-24T10:36:38;48.50;16.50
76305;DHT22;65111;50.536;19.204;2023-04-24T10:39:08;46.30;16.90
76305;DHT22;65111;50.536;19.204;2023-04-24T10:41:37;44.50;17.40
76305;DHT22;65111;50.536;19.204;2023-04-24T10:44:12;43.60;17.80
76305;DHT22;65111;50.536;19.204;2023-04-24T10:46:43;42.70;17.80
76305;DHT22;65111;50.536;19.204;2023-04-24T10:49:09;42.40;18.00
76305;DHT22;65111;50.536;19.204;2023-04-24T10:51:49;42.00;18.00
76305;DHT22;65111;50.536;19.204;2023-04-24T10:54:42;41.80;18.10
76305;DHT22;65111;50.536;19.204;2023-04-24T10:59:49;42.20;18.20
76305;DHT22;65111;50.536;19.204;2023-04-24T11:02:38;42.20;18.20
76305;DHT22;65111;50.536;19.204;2023-04-24T11:05:06;42.30;18.20
76305;DHT22;65111;50.536;19.204;2023-04-24T11:10:44;43.40;18.00
76305;DHT22;65111;50.536;19.204;2023-04-24T11:13:10;44.60;17.90
76305;DHT22;65111;50.536;19.204;2023-04-24T11:15:36;45.70;17.50
76305;DHT22;65111;50.536;19.204;2023-04-24T11:18:02;46.60;17.40
76305;DHT22;65111;50.536;19.204;2023-04-24T11:20:28;46.80;17.20
76305;DHT22;65111;50.536;19.204;2023-04-24T11:22:55;46.80;17.20
76305;DHT22;65111;50.536;19.204;2023-04-24T11:25:23;46.60;17.00
76305;DHT22;65111;50.536;19.204;2023-04-24T11:27:50;45.90;16.90
76305;DHT22;65111;50.536;19.204;2023-04-24T11:30:29;44.70;17.50
76305;DHT22;65111;50.536;19.204;2023-04-24T11:33:04;44.10;17.70
76305;DHT22;65111;50.536;19.204;2023-04-24T11:35:35;43.20;17.90
76305;DHT22;65111;50.536;19.204;2023-04-24T11:38:06;42.50;17.60
76305;DHT22;65111;50.536;19.204;2023-04-24T11:40:33;41.40;18.00
76305;DHT22;65111;50.536;19.204;2023-04-24T11:42:59;40.00;18.10
76305;DHT22;65111;50.536;19.204;2023-04-24T11:45:28;38.60;18.50
76305;DHT22;65111;50.536;19.204;2023-04-24T11:47:54;36.70;18.90
76305;DHT22;65111;50.536;19.204;2023-04-24T11:50:22;35.30;19.40
76305;DHT22;65111;50.536;19.204;2023-04-24T11:52:50;34.10;19.90
76305;DHT22;65111;50.536;19.204;2023-04-24T11:57:48;31.80;22.30
76305;DHT22;65111;50.536;19.204;2023-04-24T12:00:20;30.80;23.00
76305;DHT22;65111;50.536;19.204;2023-04-24T12:02:46;30.00;23.50
76305;DHT22;65111;50.536;19.204;2023-04-24T12:05:25;29.60;23.90
76305;DHT22;65111;50.536;19.204;2023-04-24T12:07:52;29.20;24.20
76305;DHT22;65111;50.536;19.204;2023-04-24T12:10:23;28.90;24.30
76305;DHT22;65111;50.536;19.204;2023-04-24T12:12:50;28.70;24.50
76305;DHT22;65111;50.536;19.204;2023-04-24T12:15:19;28.60;24.10
76305;DHT22;65111;50.536;19.204;2023-04-24T12:17:46;28.40;24.20
76305;DHT22;65111;50.536;19.204;2023-04-24T12:20:13;28.10;24.90
76305;DHT22;65111;50.536;19.204;2023-04-24T12:22:54;27.80;26.80
76305;DHT22;65111;50.536;19.204;2023-04-24T12:25:22;27.40;27.40
76305;DHT22;65111;50.536;19.204;2023-04-24T12:28:15;26.80;27.80
76305;DHT22;65111;50.536;19.204;2023-04-24T12:30:47;26.30;28.50
76305;DHT22;65111;50.536;19.204;2023-04-24T12:33:18;25.90;28.60
76305;DHT22;65111;50.536;19.204;2023-04-24T12:35:45;25.40;29.20
76305;DHT22;65111;50.536;19.204;2023-04-24T12:38:13;25.10;29.70
76305;DHT22;65111;50.536;19.204;2023-04-24T12:40:43;25.00;29.90
76305;DHT22;65111;50.536;19.204;2023-04-24T12:43:19;24.90;29.90
76305;DHT22;65111;50.536;19.204;2023-04-24T12:45:46;25.00;30.30
76305;DHT22;65111;50.536;19.204;2023-04-24T12:48:13;24.90;29.80
76305;DHT22;65111;50.536;19.204;2023-04-24T12:50:42;25.00;30.00
76305;DHT22;65111;50.536;19.204;2023-04-24T12:53:08;24.90;30.30
76305;DHT22;65111;50.536;19.204;2023-04-24T12:55:35;24.80;30.30
76305;DHT22;65111;50.536;19.204;2023-04-24T12:58:01;24.60;30.60
76305;DHT22;65111;50.536;19.204;2023-04-24T13:00:28;24.50;31.00
76305;DHT22;65111;50.536;19.204;2023-04-24T13:02:55;24.30;31.40
76305;DHT22;65111;50.536;19.204;2023-04-24T13:05:21;24.10;31.50
76305;DHT22;65111;50.536;19.204;2023-04-24T13:07:47;24.00;31.40
76305;DHT22;65111;50.536;19.204;2023-04-24T13:10:13;24.00;31.60
76305;DHT22;65111;50.536;19.204;2023-04-24T13:12:39;23.90;31.70
76305;DHT22;65111;50.536;19.204;2023-04-24T13:15:06;23.80;31.80
76305;DHT22;65111;50.536;19.204;2023-04-24T13:17:33;23.70;31.70
76305;DHT22;65111;50.536;19.204;2023-04-24T13:19:59;23.60;32.00
76305;DHT22;65111;50.536;19.204;2023-04-24T13:22:25;23.50;32.00
76305;DHT22;65111;50.536;19.204;2023-04-24T13:24:51;23.70;32.10
76305;DHT22;65111;50.536;19.204;2023-04-24T13:27:17;23.80;32.10
76305;DHT22;65111;50.536;19.204;2023-04-24T13:29:44;23.90;32.20
76305;DHT22;65111;50.536;19.204;2023-04-24T13:32:10;24.00;32.40
76305;DHT22;65111;50.536;19.204;2023-04-24T13:34:36;24.00;32.60
76305;DHT22;65111;50.536;19.204;2023-04-24T13:37:02;23.90;33.00
76305;DHT22;65111;50.536;19.204;2023-04-24T13:39:33;23.60;33.30
76305;DHT22;65111;50.536;19.204;2023-04-24T13:41:59;23.30;33.90
76305;DHT22;65111;50.536;19.204;2023-04-24T13:44:25;23.10;33.90
76305;DHT22;65111;50.536;19.204;2023-04-24T13:46:53;22.90;34.60
76305;DHT22;65111;50.536;19.204;2023-04-24T13:49:20;22.70;34.80
76305;DHT22;65111;50.536;19.204;2023-04-24T13:51:47;22.70;34.90
76305;DHT22;65111;50.536;19.204;2023-04-24T13:54:13;22.60;34.80
76305;DHT22;65111;50.536;19.204;2023-04-24T13:56:40;22.50;35.00
76305;DHT22;65111;50.536;19.204;2023-04-24T13:59:06;22.30;35.30
76305;DHT22;65111;50.536;19.204;2023-04-24T14:01:32;22.20;35.60
76305;DHT22;65111;50.536;19.204;2023-04-24T14:03:58;22.10;35.60
76305;DHT22;65111;50.536;19.204;2023-04-24T14:06:25;21.90;36.00
76305;DHT22;65111;50.536;19.204;2023-04-24T14:08:51;21.90;36.40
76305;DHT22;65111;50.536;19.204;2023-04-24T14:11:18;21.80;36.40
76305;DHT22;65111;50.536;19.204;2023-04-24T14:13:45;21.60;36.70
76305;DHT22;65111;50.536;19.204;2023-04-24T14:16:11;21.40;37.10
76305;DHT22;65111;50.536;19.204;2023-04-24T14:18:37;21.40;37.60
76305;DHT22;65111;50.536;19.204;2023-04-24T14:21:04;21.20;37.50
76305;DHT22;65111;50.536;19.204;2023-04-24T14:23:30;21.00;37.70
76305;DHT22;65111;50.536;19.204;2023-04-24T14:25:57;20.90;38.20
76305;DHT22;65111;50.536;19.204;2023-04-24T14:28:24;20.70;38.40
76305;DHT22;65111;50.536;19.204;2023-04-24T14:30:51;20.50;38.70
76305;DHT22;65111;50.536;19.204;2023-04-24T14:33:17;20.30;38.90
76305;DHT22;65111;50.536;19.204;2023-04-24T14:35:43;20.30;39.20
76305;DHT22;65111;50.536;19.204;2023-04-24T14:38:10;20.10;39.20
76305;DHT22;65111;50.536;19.204;2023-04-24T14:40:37;20.00;39.30
76305;DHT22;65111;50.536;19.204;2023-04-24T14:43:04;19.90;39.50
76305;DHT22;65111;50.536;19.204;2023-04-24T14:45:30;19.90;39.60
76305;DHT22;65111;50.536;19.204;2023-04-24T14:47:56;19.90;39.80
76305;DHT22;65111;50.536;19.204;2023-04-24T14:50:23;19.80;39.50
76305;DHT22;65111;50.536;19.204;2023-04-24T14:52:53;19.60;39.50
76305;DHT22;65111;50.536;19.204;2023-04-24T14:55:20;19.60;39.90
76305;DHT22;65111;50.536;19.204;2023-04-24T14:57:46;19.70;39.80
76305;DHT22;65111;50.536;19.204;2023-04-24T15:00:13;19.60;39.90
76305;DHT22;65111;50.536;19.204;2023-04-24T15:02:39;19.50;40.00
76305;DHT22;65111;50.536;19.204;2023-04-24T15:05:07;19.50;40.20
76305;DHT22;65111;50.536;19.204;2023-04-24T15:07:34;19.40;40.30
76305;DHT22;65111;50.536;19.204;2023-04-24T15:10:02;19.50;40.50
76305;DHT22;65111;50.536;19.204;2023-04-24T15:12:28;19.50;40.80
76305;DHT22;65111;50.536;19.204;2023-04-24T15:14:55;19.50;40.60
76305;DHT22;65111;50.536;19.204;2023-04-24T15:17:21;19.40;41.30
76305;DHT22;65111;50.536;19.204;2023-04-24T15:19:47;19.30;41.60
76305;DHT22;65111;50.536;19.204;2023-04-24T15:22:13;19.30;41.70
76305;DHT22;65111;50.536;19.204;2023-04-24T15:24:39;19.30;42.00
76305;DHT22;65111;50.536;19.204;2023-04-24T15:27:05;19.40;42.00